createdAt,value
2024-01-21T00:01:46.951Z,-0.69
2024-01-21T00:04:17.539Z,-0.68
2024-01-21T00:06:48.008Z,-0.68
2024-01-21T00:09:18.654Z,-0.68
2024-01-21T00:11:49.303Z,-0.67
2024-01-21T00:14:19.726Z,-0.66
2024-01-21T00:16:50.132Z,-0.65
2024-01-21T00:19:20.645Z,-0.67
2024-01-21T00:21:51.151Z,-0.66
2024-01-21T00:24:21.670Z,-0.65
2024-01-21T00:26:52.174Z,-0.66
2024-01-21T00:29:22.630Z,-0.66
2024-01-21T00:31:53.193Z,-0.65
2024-01-21T00:34:24.174Z,-0.65
2024-01-21T00:36:55.468Z,-0.66
2024-01-21T00:39:25.942Z,-0.66
2024-01-21T00:42:04.446Z,-0.67
2024-01-21T00:44:39.652Z,-0.65
2024-01-21T00:47:10.036Z,-0.64
2024-01-21T00:49:43.309Z,-0.62
2024-01-21T00:52:13.898Z,-0.61
2024-01-21T00:54:44.426Z,-0.56
2024-01-21T00:57:15.112Z,-0.54
2024-01-21T00:59:45.493Z,-0.53
2024-01-21T01:02:16.047Z,-0.50
2024-01-21T01:04:46.861Z,-0.50
2024-01-21T01:07:17.494Z,-0.47
2024-01-21T01:09:48.056Z,-0.45
2024-01-21T01:12:19.188Z,-0.42
2024-01-21T01:14:49.757Z,-0.40
2024-01-21T01:17:20.182Z,-0.36
2024-01-21T01:19:50.794Z,-0.33
2024-01-21T01:22:21.338Z,-0.30
2024-01-21T01:24:51.822Z,-0.29
2024-01-21T01:27:22.311Z,-0.26
2024-01-21T01:29:52.877Z,-0.27
2024-01-21T01:32:23.401Z,-0.27
2024-01-21T01:34:56.319Z,-0.28
2024-01-21T01:37:26.994Z,-0.31
2024-01-21T01:39:57.751Z,-0.34
2024-01-21T01:42:28.290Z,-0.37
2024-01-21T01:44:58.762Z,-0.39
2024-01-21T01:47:29.187Z,-0.41
2024-01-21T01:50:00.676Z,-0.44
2024-01-21T01:52:31.897Z,-0.47
2024-01-21T01:55:02.647Z,-0.49
2024-01-21T01:57:33.934Z,-0.51
2024-01-21T02:00:04.734Z,-0.53
2024-01-21T02:02:35.829Z,-0.54
2024-01-21T02:05:07.602Z,-0.57
2024-01-21T02:07:38.129Z,-0.57
2024-01-21T02:10:10.040Z,-0.57
2024-01-21T02:12:45.878Z,-0.60
2024-01-21T02:15:16.472Z,-0.60
2024-01-21T02:17:46.991Z,-0.62
2024-01-21T02:20:17.606Z,-0.65
2024-01-21T02:22:48.968Z,-0.65
2024-01-21T02:25:19.623Z,-0.66
2024-01-21T02:27:50.114Z,-0.67
2024-01-21T02:30:20.872Z,-0.69
2024-01-21T02:32:51.596Z,-0.71
2024-01-21T02:35:22.060Z,-0.74
2024-01-21T02:37:52.459Z,-0.78
2024-01-21T02:40:23.183Z,-0.82
2024-01-21T02:42:53.717Z,-0.84
2024-01-21T02:45:24.332Z,-0.86
2024-01-21T02:47:55.109Z,-0.89
2024-01-21T02:50:25.621Z,-0.94
2024-01-21T02:52:56.097Z,-0.97
2024-01-21T02:55:26.557Z,-1.01
2024-01-21T02:57:56.992Z,-1.05
2024-01-21T03:00:27.541Z,-1.07
2024-01-21T03:02:58.594Z,-1.10
2024-01-21T03:05:29.158Z,-1.08
2024-01-21T03:07:59.625Z,-1.07
2024-01-21T03:10:30.260Z,-1.09
2024-01-21T03:13:20.742Z,-1.09
2024-01-21T03:15:51.252Z,-1.11
2024-01-21T03:18:21.992Z,-1.13
2024-01-21T03:20:52.406Z,-1.13
2024-01-21T03:23:22.833Z,-1.12
2024-01-21T03:25:53.237Z,-1.09
2024-01-21T03:28:25.679Z,-1.07
2024-01-21T03:30:56.277Z,-1.07
2024-01-21T03:33:28.144Z,-1.04
2024-01-21T03:35:58.667Z,-1.01
2024-01-21T03:38:29.096Z,-0.98
2024-01-21T03:40:59.518Z,-0.95
2024-01-21T03:43:29.920Z,-0.92
2024-01-21T03:46:00.388Z,-0.89
2024-01-21T03:48:31.037Z,-0.85
2024-01-21T03:51:01.784Z,-0.85
2024-01-21T03:53:32.181Z,-0.85
2024-01-21T03:56:02.620Z,-0.86
2024-01-21T03:58:33.024Z,-0.88
2024-01-21T04:01:03.893Z,-0.90
2024-01-21T04:03:35.099Z,-0.91
2024-01-21T04:06:06.438Z,-0.92
2024-01-21T04:08:36.844Z,-0.94
2024-01-21T04:11:07.817Z,-0.95
2024-01-21T04:13:38.226Z,-0.99
2024-01-21T04:16:09.696Z,-1.01
2024-01-21T04:18:41.987Z,-1.03
2024-01-21T04:21:12.694Z,-1.03
2024-01-21T04:23:43.497Z,-1.04
2024-01-21T04:26:13.951Z,-1.03
2024-01-21T04:28:44.367Z,-1.02
2024-01-21T04:31:14.807Z,-1.01
2024-01-21T04:33:45.297Z,-1.03
2024-01-21T04:36:20.364Z,-1.03
2024-01-21T04:38:50.943Z,-1.01
2024-01-21T04:41:21.645Z,-0.99
2024-01-21T04:43:52.041Z,-0.99
2024-01-21T04:46:22.462Z,-0.98
2024-01-21T04:48:54.032Z,-0.96
2024-01-21T04:51:24.574Z,-0.93
2024-01-21T04:53:55.149Z,-0.92
2024-01-21T04:56:25.706Z,-0.86
2024-01-21T04:58:57.990Z,-0.86
2024-01-21T05:01:28.791Z,-0.82
2024-01-21T05:03:59.277Z,-0.80
2024-01-21T05:06:29.835Z,-0.78
2024-01-21T05:09:00.292Z,-0.77
2024-01-21T05:11:31.362Z,-0.76
2024-01-21T05:14:01.784Z,-0.75
2024-01-21T05:16:32.232Z,-0.76
2024-01-21T05:19:02.876Z,-0.75
2024-01-21T05:21:33.505Z,-0.76
2024-01-21T05:24:06.040Z,-0.76
2024-01-21T05:26:45.851Z,-0.76
2024-01-21T05:29:14.791Z,-0.70
2024-01-21T05:31:45.248Z,-0.69
2024-01-21T05:34:16.035Z,-0.65
2024-01-21T05:36:47.066Z,-0.63
2024-01-21T05:39:17.705Z,-0.61
2024-01-21T05:42:04.052Z,-0.57
2024-01-21T05:44:34.649Z,-0.54
2024-01-21T05:47:05.503Z,-0.51
2024-01-21T05:49:36.045Z,-0.48
2024-01-21T05:52:07.327Z,-0.44
2024-01-21T05:54:37.747Z,-0.41
2024-01-21T05:57:08.873Z,-0.38
2024-01-21T05:59:39.469Z,-0.34
2024-01-21T06:02:11.966Z,-0.30
2024-01-21T06:04:42.700Z,-0.27
2024-01-21T06:07:13.256Z,-0.26
2024-01-21T06:09:43.859Z,-0.25
2024-01-21T06:12:14.417Z,-0.26
2024-01-21T06:14:45.582Z,-0.24
2024-01-21T06:17:15.976Z,-0.22
2024-01-21T06:19:46.403Z,-0.23
2024-01-21T06:22:16.769Z,-0.19
2024-01-21T06:24:47.816Z,-0.13
2024-01-21T06:27:18.289Z,-0.08
2024-01-21T06:29:48.909Z,-0.00
2024-01-21T06:32:19.526Z,0.08
2024-01-21T06:34:50.021Z,0.17
2024-01-21T06:37:20.860Z,0.26
2024-01-21T06:39:57.476Z,0.34
2024-01-21T06:42:33.452Z,0.44
2024-01-21T06:45:03.947Z,0.53
2024-01-21T06:47:34.420Z,0.60
2024-01-21T06:50:05.456Z,0.64
2024-01-21T06:52:35.846Z,0.70
2024-01-21T06:55:07.677Z,0.76
2024-01-21T06:57:40.977Z,0.77
2024-01-21T07:00:14.497Z,0.80
2024-01-21T07:02:44.902Z,0.85
2024-01-21T07:05:15.464Z,0.89
2024-01-21T07:07:47.035Z,0.94
2024-01-21T07:10:19.344Z,1.00
2024-01-21T07:12:49.818Z,1.11
2024-01-21T07:15:20.692Z,1.21
2024-01-21T07:17:51.290Z,1.28
2024-01-21T07:20:21.725Z,1.35
2024-01-21T07:22:52.142Z,1.40
2024-01-21T07:25:22.610Z,1.49
2024-01-21T07:27:53.276Z,1.57
2024-01-21T07:30:23.874Z,1.64
2024-01-21T07:32:55.721Z,1.69
2024-01-21T07:35:26.979Z,1.73
2024-01-21T07:37:57.355Z,1.76
2024-01-21T07:40:28.309Z,1.79
2024-01-21T07:42:58.698Z,1.83
2024-01-21T07:45:29.951Z,1.87
2024-01-21T07:48:00.658Z,1.95
2024-01-21T07:50:31.120Z,2.01
2024-01-21T07:53:01.561Z,2.09
2024-01-21T07:55:31.937Z,2.18
2024-01-21T07:58:03.419Z,2.26
2024-01-21T08:00:35.078Z,2.33
2024-01-21T08:03:06.814Z,2.40
2024-01-21T08:05:37.242Z,2.46
2024-01-21T08:08:08.604Z,2.50
2024-01-21T08:10:38.980Z,2.56
2024-01-21T08:13:09.412Z,2.62
2024-01-21T08:15:39.773Z,2.68
2024-01-21T08:18:10.209Z,2.73
2024-01-21T08:20:40.958Z,2.77
2024-01-21T08:23:11.351Z,2.81
2024-01-21T08:25:42.182Z,2.84
2024-01-21T08:28:12.509Z,2.87
2024-01-21T08:30:43.088Z,2.92
2024-01-21T08:33:13.804Z,2.95
2024-01-21T08:35:44.329Z,2.98
2024-01-21T08:38:17.824Z,3.00
2024-01-21T08:40:48.174Z,3.02
2024-01-21T08:43:18.549Z,3.03
2024-01-21T08:45:49.087Z,3.04
2024-01-21T08:48:19.785Z,3.03
2024-01-21T08:50:50.387Z,3.04
2024-01-21T08:53:22.031Z,3.04
2024-01-21T08:55:52.646Z,3.05
2024-01-21T08:58:23.346Z,3.06
2024-01-21T09:00:54.195Z,3.07
2024-01-21T09:03:24.959Z,3.08
2024-01-21T09:05:55.725Z,3.06
2024-01-21T09:08:26.239Z,3.04
2024-01-21T09:10:56.935Z,3.02
2024-01-21T09:13:27.373Z,3.00
2024-01-21T09:15:58.222Z,2.98
2024-01-21T09:18:28.940Z,2.94
2024-01-21T09:21:00.600Z,2.93
2024-01-21T09:23:31.054Z,2.91
2024-01-21T09:26:01.472Z,2.91
2024-01-21T09:28:31.913Z,2.91
2024-01-21T09:31:02.763Z,2.91
2024-01-21T09:33:33.445Z,2.92
2024-01-21T09:36:04.354Z,2.93
2024-01-21T09:38:34.807Z,2.93
2024-01-21T09:41:13.902Z,2.96
2024-01-21T09:43:44.758Z,2.98
2024-01-21T09:46:17.089Z,2.98
2024-01-21T09:48:48.832Z,2.98
2024-01-21T09:51:22.191Z,2.94
2024-01-21T09:53:54.761Z,2.94
2024-01-21T09:56:28.086Z,2.96
2024-01-21T09:58:59.095Z,2.99
2024-01-21T10:01:31.060Z,2.99
2024-01-21T10:04:03.856Z,2.98
2024-01-21T10:06:37.342Z,2.98
2024-01-21T10:09:22.883Z,2.96
2024-01-21T10:12:01.497Z,2.96
2024-01-21T10:14:34.813Z,2.96
2024-01-21T10:17:10.606Z,2.95
2024-01-21T10:19:43.419Z,2.97
2024-01-21T10:22:17.032Z,3.00
2024-01-21T10:24:50.433Z,3.06
2024-01-21T10:27:23.483Z,3.14
2024-01-21T10:29:55.822Z,3.21
2024-01-21T10:32:30.101Z,3.29
2024-01-21T10:35:02.132Z,3.35
2024-01-21T10:37:38.175Z,3.38
2024-01-21T10:40:13.222Z,3.39
2024-01-21T10:42:54.496Z,3.38
2024-01-21T10:45:27.984Z,3.38
2024-01-21T10:48:01.664Z,3.35
2024-01-21T10:50:33.548Z,3.33
2024-01-21T10:53:06.734Z,3.31
2024-01-21T10:55:41.564Z,3.29
2024-01-21T10:58:13.396Z,3.26
2024-01-21T11:00:45.255Z,3.23
2024-01-21T11:03:33.089Z,3.23
2024-01-21T11:06:04.680Z,3.23
2024-01-21T11:08:36.912Z,3.20
2024-01-21T11:11:18.113Z,3.18
2024-01-21T11:13:50.923Z,3.18
2024-01-21T11:16:43.080Z,3.20
2024-01-21T11:19:19.497Z,3.25
2024-01-21T11:21:57.025Z,3.29
2024-01-21T11:24:33.792Z,3.31
2024-01-21T11:27:09.152Z,3.31
2024-01-21T11:29:41.405Z,3.30
2024-01-21T11:32:13.712Z,3.31
2024-01-21T11:34:47.350Z,3.30
2024-01-21T11:37:19.352Z,3.32
2024-01-21T11:39:52.116Z,3.36
2024-01-21T11:42:24.856Z,3.40
2024-01-21T11:45:05.583Z,3.44
2024-01-21T11:47:37.045Z,3.48
2024-01-21T11:50:09.714Z,3.52
2024-01-21T11:52:41.334Z,3.57
2024-01-21T11:55:12.784Z,3.63
2024-01-21T11:57:44.139Z,3.68
2024-01-21T12:00:18.344Z,3.71
2024-01-21T12:02:53.477Z,3.74
2024-01-21T12:05:26.263Z,3.75
2024-01-21T12:08:00.021Z,3.75
2024-01-21T12:10:32.186Z,3.74
2024-01-21T12:13:04.229Z,3.72
2024-01-21T12:15:39.756Z,3.73
2024-01-21T12:18:11.759Z,3.75
2024-01-21T12:20:43.886Z,3.79
2024-01-21T12:23:25.564Z,3.82
2024-01-21T12:25:59.865Z,3.85
2024-01-21T12:28:32.280Z,3.88
2024-01-21T12:31:04.057Z,3.92
2024-01-21T12:33:35.703Z,3.95
2024-01-21T12:36:08.056Z,3.97
2024-01-21T12:38:40.025Z,4.01
2024-01-21T12:41:11.651Z,4.03
2024-01-21T12:43:44.953Z,3.99
2024-01-21T12:46:16.068Z,3.91
2024-01-21T12:48:47.588Z,3.86
2024-01-21T12:51:24.804Z,3.88
2024-01-21T12:53:57.539Z,3.90
2024-01-21T12:56:29.063Z,3.90
2024-01-21T12:59:00.103Z,3.89
2024-01-21T13:01:30.628Z,3.89
2024-01-21T13:04:01.675Z,3.91
2024-01-21T13:06:35.139Z,3.95
2024-01-21T13:09:08.512Z,4.00
2024-01-21T13:11:40.690Z,4.01
2024-01-21T13:14:19.552Z,3.95
2024-01-21T13:16:56.873Z,3.90
2024-01-21T13:19:29.793Z,3.86
2024-01-21T13:22:07.854Z,3.83
2024-01-21T13:24:37.644Z,3.78
2024-01-21T13:27:12.857Z,3.74
2024-01-21T13:30:01.323Z,3.69
2024-01-21T13:32:33.568Z,3.67
2024-01-21T13:35:07.585Z,3.70
2024-01-21T13:37:40.063Z,3.77
2024-01-21T13:40:13.176Z,3.83
2024-01-21T13:42:43.687Z,3.89
2024-01-21T13:45:15.502Z,3.91
2024-01-21T13:47:46.062Z,3.90
2024-01-21T13:50:16.799Z,3.90
2024-01-21T13:52:47.236Z,3.89
2024-01-21T13:55:17.915Z,3.90
2024-01-21T13:57:48.395Z,3.93
2024-01-21T14:00:23.580Z,3.95
2024-01-21T14:02:57.642Z,3.96
2024-01-21T14:05:29.204Z,3.98
2024-01-21T14:08:00.013Z,4.01
2024-01-21T14:10:30.471Z,3.98
2024-01-21T14:13:01.289Z,3.94
2024-01-21T14:15:31.938Z,3.89
2024-01-21T14:18:05.603Z,3.81
2024-01-21T14:20:36.133Z,3.72
2024-01-21T14:23:07.060Z,3.64
2024-01-21T14:25:42.308Z,3.55
2024-01-21T14:28:12.971Z,3.45
2024-01-21T14:30:43.499Z,3.37
2024-01-21T14:33:14.019Z,3.31
2024-01-21T14:35:44.809Z,3.24
2024-01-21T14:38:15.414Z,3.17
2024-01-21T14:40:47.738Z,3.11
2024-01-21T14:43:18.401Z,3.07
2024-01-21T14:45:49.067Z,3.05
2024-01-21T14:48:20.329Z,3.04
2024-01-21T14:50:50.831Z,3.05
2024-01-21T14:53:21.676Z,3.05
2024-01-21T14:55:52.132Z,3.07
2024-01-21T14:58:23.052Z,3.06
2024-01-21T15:00:53.558Z,3.06
2024-01-21T15:03:24.135Z,3.05
2024-01-21T15:05:54.673Z,3.03
2024-01-21T15:08:25.391Z,3.01
2024-01-21T15:10:56.470Z,2.97
2024-01-21T15:13:32.273Z,2.98
2024-01-21T15:16:02.724Z,2.94
2024-01-21T15:18:34.913Z,2.93
2024-01-21T15:21:05.992Z,2.90
2024-01-21T15:23:36.383Z,2.90
2024-01-21T15:26:07.740Z,2.89
2024-01-21T15:28:38.253Z,2.87
2024-01-21T15:31:08.788Z,2.86
2024-01-21T15:33:39.810Z,2.86
2024-01-21T15:36:10.708Z,2.86
2024-01-21T15:38:41.297Z,2.83
2024-01-21T15:41:11.886Z,2.84
2024-01-21T15:43:42.375Z,2.85
2024-01-21T15:46:12.795Z,2.87
2024-01-21T15:48:43.355Z,2.87
2024-01-21T15:51:15.581Z,2.87
2024-01-21T15:53:46.261Z,2.87
2024-01-21T15:56:16.748Z,2.87
2024-01-21T15:58:47.216Z,2.87
2024-01-21T16:01:17.869Z,2.87
2024-01-21T16:03:49.711Z,2.87
2024-01-21T16:06:20.403Z,2.84
2024-01-21T16:08:51.079Z,2.83
2024-01-21T16:11:21.875Z,2.81
2024-01-21T16:13:53.041Z,2.78
2024-01-21T16:16:23.523Z,2.77
2024-01-21T16:18:54.112Z,2.75
2024-01-21T16:21:24.761Z,2.74
2024-01-21T16:23:55.355Z,2.71
2024-01-21T16:26:26.704Z,2.72
2024-01-21T16:28:57.618Z,2.69
2024-01-21T16:31:28.049Z,2.70
2024-01-21T16:33:58.578Z,2.70
2024-01-21T16:36:29.098Z,2.69
2024-01-21T16:39:00.331Z,2.69
2024-01-21T16:41:31.081Z,2.68
2024-01-21T16:44:03.170Z,2.69
2024-01-21T16:46:33.946Z,2.69
2024-01-21T16:49:05.279Z,2.68
2024-01-21T16:51:45.177Z,2.68
2024-01-21T16:54:16.633Z,2.69
2024-01-21T16:56:47.963Z,2.69
2024-01-21T16:59:18.557Z,2.69
2024-01-21T17:01:57.885Z,2.70
2024-01-21T17:04:31.890Z,2.69
2024-01-21T17:09:37.626Z,2.62
2024-01-21T17:12:21.040Z,2.58
2024-01-21T17:14:51.517Z,2.52
2024-01-21T17:17:24.030Z,2.48
2024-01-21T17:19:54.534Z,2.43
2024-01-21T17:22:25.364Z,2.39
2024-01-21T17:24:55.711Z,2.34
2024-01-21T17:27:26.044Z,2.30
2024-01-21T17:29:58.623Z,2.27
2024-01-21T17:32:29.212Z,2.24
2024-01-21T17:34:59.645Z,2.21
2024-01-21T17:37:30.105Z,2.19
2024-01-21T17:40:00.560Z,2.18
2024-01-21T17:42:30.983Z,2.19
2024-01-21T17:45:03.684Z,2.21
2024-01-21T17:47:34.306Z,2.24
2024-01-21T17:50:06.455Z,2.25
2024-01-21T17:52:37.854Z,2.23
2024-01-21T17:55:10.488Z,2.18
2024-01-21T17:57:42.007Z,2.17
2024-01-21T18:00:15.533Z,2.14
2024-01-21T18:02:47.163Z,2.13
2024-01-21T18:05:18.450Z,2.11
2024-01-21T18:07:48.920Z,2.11
2024-01-21T18:10:19.504Z,2.13
2024-01-21T18:12:50.055Z,2.13
2024-01-21T18:15:21.474Z,2.14
2024-01-21T18:17:51.963Z,2.15
2024-01-21T18:20:22.915Z,2.16
2024-01-21T18:22:53.378Z,2.17
2024-01-21T18:25:24.498Z,2.17
2024-01-21T18:27:57.727Z,2.19
2024-01-21T18:30:28.488Z,2.20
2024-01-21T18:32:59.924Z,2.22
2024-01-21T18:35:30.789Z,2.25
2024-01-21T18:38:01.904Z,2.26
2024-01-21T18:40:32.387Z,2.27
2024-01-21T18:43:02.804Z,2.31
2024-01-21T18:45:33.233Z,2.30
2024-01-21T18:48:04.519Z,2.33
2024-01-21T18:50:35.695Z,2.34
2024-01-21T18:53:06.489Z,2.35
2024-01-21T18:55:38.573Z,2.37
2024-01-21T18:58:15.105Z,2.41
2024-01-21T19:00:49.204Z,2.46
2024-01-21T19:03:20.155Z,2.51
2024-01-21T19:05:50.697Z,2.56
2024-01-21T19:08:21.250Z,2.60
2024-01-21T19:10:51.670Z,2.64
2024-01-21T19:13:22.105Z,2.68
2024-01-21T19:15:52.581Z,2.72
2024-01-21T19:18:23.542Z,2.76
2024-01-21T19:20:54.177Z,2.80
2024-01-21T19:23:24.682Z,2.85
2024-01-21T19:25:55.470Z,2.88
2024-01-21T19:28:26.555Z,2.91
2024-01-21T19:30:57.601Z,2.96
2024-01-21T19:33:30.799Z,3.00
2024-01-21T19:36:03.155Z,3.03
2024-01-21T19:38:34.461Z,3.07
2024-01-21T19:41:05.629Z,3.09
2024-01-21T19:43:38.554Z,3.12
2024-01-21T19:46:09.687Z,3.11
2024-01-21T19:48:42.010Z,3.13
2024-01-21T19:51:15.860Z,3.13
2024-01-21T19:53:46.413Z,3.12
2024-01-21T19:56:16.989Z,3.13
2024-01-21T19:58:47.830Z,3.14
2024-01-21T20:01:18.665Z,3.19
2024-01-21T20:03:49.364Z,3.25
2024-01-21T20:06:20.050Z,3.32
2024-01-21T20:08:50.656Z,3.37
2024-01-21T20:11:21.630Z,3.42
2024-01-21T20:13:52.337Z,3.47
2024-01-21T20:16:22.826Z,3.49
2024-01-21T20:18:53.697Z,3.50
2024-01-21T20:21:24.529Z,3.52
2024-01-21T20:23:56.133Z,3.54
2024-01-21T20:26:26.627Z,3.55
2024-01-21T20:28:57.264Z,3.56
2024-01-21T20:31:28.008Z,3.58
2024-01-21T20:33:58.744Z,3.58
2024-01-21T20:36:29.526Z,3.58
2024-01-21T20:39:00.319Z,3.57
2024-01-21T20:41:31.292Z,3.54
2024-01-21T20:44:02.702Z,3.53
2024-01-21T20:46:33.142Z,3.52
2024-01-21T20:49:03.675Z,3.53
2024-01-21T20:51:36.015Z,3.58
2024-01-21T20:54:06.632Z,3.60
2024-01-21T20:56:37.225Z,3.60
2024-01-21T20:59:07.696Z,3.57
2024-01-21T21:01:38.201Z,3.55
2024-01-21T21:04:08.991Z,3.53
2024-01-21T21:06:40.409Z,3.50
2024-01-21T21:09:13.267Z,3.46
2024-01-21T21:11:43.806Z,3.42
2024-01-21T21:14:14.425Z,3.39
2024-01-21T21:16:45.574Z,3.38
2024-01-21T21:19:16.513Z,3.38
2024-01-21T21:21:47.427Z,3.36
2024-01-21T21:24:18.846Z,3.38
2024-01-21T21:26:49.389Z,3.39
2024-01-21T21:29:19.954Z,3.42
2024-01-21T21:31:50.335Z,3.45
2024-01-21T21:34:20.807Z,3.48
2024-01-21T21:36:51.265Z,3.51
2024-01-21T21:39:23.884Z,3.53
2024-01-21T21:41:54.417Z,3.55
2024-01-21T21:44:25.180Z,3.57
2024-01-21T21:46:57.917Z,3.55
2024-01-21T21:49:29.282Z,3.56
2024-01-21T21:52:00.278Z,3.55
2024-01-21T21:54:31.958Z,3.55
2024-01-21T21:57:03.343Z,3.54
2024-01-21T21:59:34.183Z,3.54
2024-01-21T22:02:05.419Z,3.56
2024-01-21T22:04:36.288Z,3.59
2024-01-21T22:07:07.594Z,3.61
2024-01-21T22:09:38.145Z,3.63
2024-01-21T22:12:11.443Z,3.65
2024-01-21T22:14:42.622Z,3.66
2024-01-21T22:17:13.105Z,3.70
2024-01-21T22:19:44.146Z,3.73
2024-01-21T22:22:15.143Z,3.74
2024-01-21T22:24:46.184Z,3.76
2024-01-21T22:27:18.588Z,3.78
2024-01-21T22:29:49.548Z,3.79
2024-01-21T22:32:20.071Z,3.80
2024-01-21T22:34:50.569Z,3.82
2024-01-21T22:37:20.995Z,3.87
2024-01-21T22:39:53.934Z,3.90
2024-01-21T22:42:24.331Z,3.90
2024-01-21T22:44:54.814Z,3.93
2024-01-21T22:47:25.453Z,3.96
2024-01-21T22:49:56.249Z,3.99
2024-01-21T22:52:26.999Z,4.03
2024-01-21T22:54:57.417Z,4.07
2024-01-21T22:57:27.848Z,4.10
2024-01-21T22:59:58.734Z,4.16
2024-01-21T23:02:29.569Z,4.19
2024-01-21T23:05:01.825Z,4.21
2024-01-21T23:07:33.359Z,4.22
2024-01-21T23:10:03.969Z,4.23
2024-01-21T23:12:34.413Z,4.26
2024-01-21T23:15:05.578Z,4.30
2024-01-21T23:17:36.112Z,4.34
2024-01-21T23:20:09.238Z,4.38
2024-01-21T23:22:39.670Z,4.40
2024-01-21T23:25:11.476Z,4.43
2024-01-21T23:27:41.926Z,4.44
2024-01-21T23:30:12.962Z,4.44
2024-01-21T23:32:43.824Z,4.46
2024-01-21T23:35:14.888Z,4.48
2024-01-21T23:37:45.262Z,4.49
2024-01-21T23:40:16.406Z,4.52
2024-01-21T23:42:46.863Z,4.55
2024-01-21T23:45:17.614Z,4.56
2024-01-21T23:47:48.398Z,4.58
2024-01-21T23:50:19.578Z,4.60
2024-01-21T23:52:50.019Z,4.61
2024-01-21T23:55:20.519Z,4.65
2024-01-21T23:57:51.007Z,4.67
